sensor_id;sensor_type;location;lat;lon;timestamp;pressure;altitude;pressure_sealevel;temperature;humidity
9460;BME280;4768;42.664;23.240;2022-07-29T00:01:15;171448.47;;;16.89;100.00
9460;BME280;4768;42.664;23.240;2022-07-29T00:03:43;171465.84;;;16.95;100.00
9460;BME280;4768;42.664;23.240;2022-07-29T00:06:11;171503.34;;;17.09;100.00
9460;BME280;4768;42.664;23.240;2022-07-29T00:08:38;171554.28;;;17.28;100.00
9460;BME280;4768;42.664;23.240;2022-07-29T00:11:04;171583.69;;;17.39;100.00
9460;BME280;4768;42.664;23.240;2022-07-29T00:13:31;171645.25;;;17.62;100.00
9460;BME280;4768;42.664;23.240;2022-07-29T00:15:58;171614.50;;;17.50;100.00
9460;BME280;4768;42.664;23.240;2022-07-29T00:18:25;171581.00;;;17.38;100.00
9460;BME280;4768;42.664;23.240;2022-07-29T00:20:51;171585.03;;;17.40;100.00
9460;BME280;4768;42.664;23.240;2022-07-29T00:23:19;171538.22;;;17.22;100.00
9460;BME280;4768;42.664;23.240;2022-07-29T00:25:46;171547.56;;;17.26;100.00
9460;BME280;4768;42.664;23.240;2022-07-29T00:28:13;171496.66;;;17.07;100.00
9460;BME280;4768;42.664;23.240;2022-07-29T00:30:40;171464.53;;;16.95;100.00
9460;BME280;4768;42.664;23.240;2022-07-29T00:33:08;171516.72;;;17.14;100.00
9460;BME280;4768;42.664;23.240;2022-07-29T00:35:35;171558.28;;;17.30;100.00
9460;BME280;4768;42.664;23.240;2022-07-29T00:38:10;171511.38;;;17.12;100.00
9460;BME280;4768;42.664;23.240;2022-07-29T00:40:38;171484.59;;;17.02;100.00
9460;BME280;4768;42.664;23.240;2022-07-29T00:43:05;171484.59;;;17.02;100.00
9460;BME280;4768;42.664;23.240;2022-07-29T00:45:33;171524.75;;;17.17;100.00
9460;BME280;4768;42.664;23.240;2022-07-29T00:47:59;171538.22;;;17.22;100.00
9460;BME280;4768;42.664;23.240;2022-07-29T00:50:26;171552.91;;;17.28;100.00
9460;BME280;4768;42.664;23.240;2022-07-29T00:52:53;171531.47;;;17.20;100.00
9460;BME280;4768;42.664;23.240;2022-07-29T00:55:20;171484.59;;;17.02;100.00
9460;BME280;4768;42.664;23.240;2022-07-29T00:57:48;171441.78;;;16.87;100.00
9460;BME280;4768;42.664;23.240;2022-07-29T01:00:18;171506.06;;;17.10;100.00
9460;BME280;4768;42.664;23.240;2022-07-29T01:02:46;171447.16;;;16.89;100.00
9460;BME280;4768;42.664;23.240;2022-07-29T01:05:16;171477.91;;;17.00;100.00
9460;BME280;4768;42.664;23.240;2022-07-29T01:07:44;171483.28;;;17.02;100.00
9460;BME280;4768;42.664;23.240;2022-07-29T01:10:13;171464.53;;;16.95;100.00
9460;BME280;4768;42.664;23.240;2022-07-29T01:12:41;171456.50;;;16.92;100.00
9460;BME280;4768;42.664;23.240;2022-07-29T01:15:11;171435.13;;;16.84;100.00
9460;BME280;4768;42.664;23.240;2022-07-29T01:17:43;171423.09;;;16.80;100.00
9460;BME280;4768;42.664;23.240;2022-07-29T01:20:16;171397.63;;;16.70;100.00
9460;BME280;4768;42.664;23.240;2022-07-29T01:23:08;171393.63;;;16.69;100.00
9460;BME280;4768;42.664;23.240;2022-07-29T01:26:01;171377.56;;;16.63;100.00
9460;BME280;4768;42.664;23.240;2022-07-29T01:28:49;171362.88;;;16.57;100.00
9460;BME280;4768;42.664;23.240;2022-07-29T01:31:24;171374.91;;;16.62;100.00
9460;BME280;4768;42.664;23.240;2022-07-29T01:34:03;171369.53;;;16.60;100.00
9460;BME280;4768;42.664;23.240;2022-07-29T01:36:35;171352.16;;;16.53;100.00
9460;BME280;4768;42.664;23.240;2022-07-29T01:39:12;171337.44;;;16.48;100.00
9460;BME280;4768;42.664;23.240;2022-07-29T01:41:49;171346.81;;;16.51;100.00
9460;BME280;4768;42.664;23.240;2022-07-29T01:44:20;171353.47;;;16.54;100.00
9460;BME280;4768;42.664;23.240;2022-07-29T01:46:51;171369.53;;;16.60;100.00
9460;BME280;4768;42.664;23.240;2022-07-29T01:49:22;171378.94;;;16.63;100.00
9460;BME280;4768;42.664;23.240;2022-07-29T01:51:53;171386.97;;;16.66;100.00
9460;BME280;4768;42.664;23.240;2022-07-29T01:54:25;171395.00;;;16.69;100.00
9460;BME280;4768;42.664;23.240;2022-07-29T01:56:55;171403.00;;;16.72;100.00
9460;BME280;4768;42.664;23.240;2022-07-29T01:59:25;171420.38;;;16.79;100.00
9460;BME280;4768;42.664;23.240;2022-07-29T02:01:54;171416.38;;;16.77;100.00
9460;BME280;4768;42.664;23.240;2022-07-29T02:04:22;171413.69;;;16.76;100.00
9460;BME280;4768;42.664;23.240;2022-07-29T02:06:51;171382.94;;;16.65;100.00
9460;BME280;4768;42.664;23.240;2022-07-29T02:09:19;171346.81;;;16.51;100.00
9460;BME280;4768;42.664;23.240;2022-07-29T02:11:49;171320.06;;;16.42;100.00
9460;BME280;4768;42.664;23.240;2022-07-29T02:14:18;171310.66;;;16.38;100.00
9460;BME280;4768;42.664;23.240;2022-07-29T02:16:50;171324.06;;;16.43;100.00
9460;BME280;4768;42.664;23.240;2022-07-29T02:19:19;171349.47;;;16.52;100.00
9460;BME280;4768;42.664;23.240;2022-07-29T02:21:48;171380.25;;;16.64;100.00
9460;BME280;4768;42.664;23.240;2022-07-29T02:24:18;171366.91;;;16.59;100.00
9460;BME280;4768;42.664;23.240;2022-07-29T02:26:45;171341.44;;;16.49;100.00
9460;BME280;4768;42.664;23.240;2022-07-29T02:29:14;171322.69;;;16.43;100.00
9460;BME280;4768;42.664;23.240;2022-07-29T02:31:43;171333.41;;;16.46;100.00
9460;BME280;4768;42.664;23.240;2022-07-29T02:34:15;171333.41;;;16.46;100.00
9460;BME280;4768;42.664;23.240;2022-07-29T02:36:44;171337.44;;;16.48;100.00
9460;BME280;4768;42.664;23.240;2022-07-29T02:39:12;171353.47;;;16.54;100.00
9460;BME280;4768;42.664;23.240;2022-07-29T02:41:43;171405.66;;;16.73;100.00
9460;BME280;4768;42.664;23.240;2022-07-29T02:44:12;171417.69;;;16.78;100.00
9460;BME280;4768;42.664;23.240;2022-07-29T02:46:44;171399.00;;;16.71;100.00
9460;BME280;4768;42.664;23.240;2022-07-29T02:49:18;171423.09;;;16.80;100.00
9460;BME280;4768;42.664;23.240;2022-07-29T02:51:53;171436.44;;;16.85;100.00
9460;BME280;4768;42.664;23.240;2022-07-29T02:54:25;171472.56;;;16.98;100.00
9460;BME280;4768;42.664;23.240;2022-07-29T02:56:54;171451.19;;;16.90;100.00
9460;BME280;4768;42.664;23.240;2022-07-29T02:59:24;171428.41;;;16.82;100.00
9460;BME280;4768;42.664;23.240;2022-07-29T03:01:54;171425.72;;;16.81;100.00
9460;BME280;4768;42.664;23.240;2022-07-29T03:04:24;171374.91;;;16.62;100.00
9460;BME280;4768;42.664;23.240;2022-07-29T03:06:52;171350.84;;;16.53;100.00
9460;BME280;4768;42.664;23.240;2022-07-29T03:09:20;171348.16;;;16.52;100.00
9460;BME280;4768;42.664;23.240;2022-07-29T03:11:48;171342.81;;;16.50;100.00
9460;BME280;4768;42.664;23.240;2022-07-29T03:14:16;171334.78;;;16.47;100.00
9460;BME280;4768;42.664;23.240;2022-07-29T03:16:44;171340.13;;;16.49;100.00
9460;BME280;4768;42.664;23.240;2022-07-29T03:19:12;171330.72;;;16.45;100.00
9460;BME280;4768;42.664;23.240;2022-07-29T03:21:40;171322.69;;;16.43;100.00
9460;BME280;4768;42.664;23.240;2022-07-29T03:24:07;171321.38;;;16.42;100.00
9460;BME280;4768;42.664;23.240;2022-07-29T03:26:34;171340.13;;;16.49;100.00
9460;BME280;4768;42.664;23.240;2022-07-29T03:29:00;171340.13;;;16.49;100.00
9460;BME280;4768;42.664;23.240;2022-07-29T03:31:27;171338.81;;;16.48;100.00
9460;BME280;4768;42.664;23.240;2022-07-29T03:33:54;171332.09;;;16.46;100.00
9460;BME280;4768;42.664;23.240;2022-07-29T03:36:21;171308.03;;;16.37;100.00
9460;BME280;4768;42.664;23.240;2022-07-29T03:38:49;171279.94;;;16.27;100.00
9460;BME280;4768;42.664;23.240;2022-07-29T03:41:16;171279.94;;;16.27;100.00
9460;BME280;4768;42.664;23.240;2022-07-29T03:43:46;171297.31;;;16.33;100.00
9460;BME280;4768;42.664;23.240;2022-07-29T03:46:16;171313.34;;;16.39;100.00
9460;BME280;4768;42.664;23.240;2022-07-29T03:48:46;171304.00;;;16.36;100.00
9460;BME280;4768;42.664;23.240;2022-07-29T03:51:15;171310.66;;;16.38;100.00
9460;BME280;4768;42.664;23.240;2022-07-29T03:53:42;171337.44;;;16.48;100.00
9460;BME280;4768;42.664;23.240;2022-07-29T03:56:15;171390.97;;;16.68;100.00
9460;BME280;4768;42.664;23.240;2022-07-29T03:58:43;171432.44;;;16.83;100.00
9460;BME280;4768;42.664;23.240;2022-07-29T04:01:11;171455.19;;;16.92;100.00
9460;BME280;4768;42.664;23.240;2022-07-29T04:03:39;171476.59;;;16.99;100.00
9460;BME280;4768;42.664;23.240;2022-07-29T04:06:07;171531.47;;;17.20;100.00
9460;BME280;4768;42.664;23.240;2022-07-29T04:08:34;171548.88;;;17.26;100.00
9460;BME280;4768;42.664;23.240;2022-07-29T04:11:02;171607.78;;;17.48;100.00
9460;BME280;4768;42.664;23.240;2022-07-29T04:13:30;171641.22;;;17.60;100.00
9460;BME280;4768;42.664;23.240;2022-07-29T04:15:57;171692.13;;;17.79;100.00
9460;BME280;4768;42.664;23.240;2022-07-29T04:18:24;171728.25;;;17.92;100.00
9460;BME280;4768;42.664;23.240;2022-07-29T04:20:51;171771.13;;;18.08;100.00
9460;BME280;4768;42.664;23.240;2022-07-29T04:23:18;171793.94;;;18.17;100.00
9460;BME280;4768;42.664;23.240;2022-07-29T04:25:45;171803.31;;;18.20;100.00
9460;BME280;4768;42.664;23.240;2022-07-29T04:28:12;171772.44;;;18.09;100.00
9460;BME280;4768;42.664;23.240;2022-07-29T04:30:40;171787.25;;;18.14;100.00
9460;BME280;4768;42.664;23.240;2022-07-29T04:33:07;171714.88;;;17.88;100.00
9460;BME280;4768;42.664;23.240;2022-07-29T04:35:35;171722.94;;;17.91;100.00
9460;BME280;4768;42.664;23.240;2022-07-29T04:38:03;171701.53;;;17.83;100.00
9460;BME280;4768;42.664;23.240;2022-07-29T04:40:30;171740.31;;;17.97;100.00
9460;BME280;4768;42.664;23.240;2022-07-29T04:42:59;171799.28;;;18.19;100.00
9460;BME280;4768;42.664;23.240;2022-07-29T04:45:26;171810.03;;;18.23;100.00
9460;BME280;4768;42.664;23.240;2022-07-29T04:47:54;171875.63;;;18.47;100.00
9460;BME280;4768;42.664;23.240;2022-07-29T04:50:21;171951.94;;;18.75;100.00
9460;BME280;4768;42.664;23.240;2022-07-29T04:52:48;171973.44;;;18.83;100.00
9460;BME280;4768;42.664;23.240;2022-07-29T04:55:15;171914.47;;;18.61;100.00
9460;BME280;4768;42.664;23.240;2022-07-29T04:57:41;171843.47;;;18.35;100.00
9460;BME280;4768;42.664;23.240;2022-07-29T05:00:09;171851.50;;;18.38;100.00
9460;BME280;4768;42.664;23.240;2022-07-29T05:02:36;171852.88;;;18.39;100.00
9460;BME280;4768;42.664;23.240;2022-07-29T05:05:04;171843.47;;;18.35;100.00
9460;BME280;4768;42.664;23.240;2022-07-29T05:07:31;171864.94;;;18.43;100.00
9460;BME280;4768;42.664;23.240;2022-07-29T05:09:58;171976.06;;;18.84;100.00
9460;BME280;4768;42.664;23.240;2022-07-29T05:12:25;172028.41;;;19.03;100.00
9460;BME280;4768;42.664;23.240;2022-07-29T05:14:53;172138.25;;;19.44;100.00
9460;BME280;4768;42.664;23.240;2022-07-29T05:17:19;172285.75;;;19.98;100.00
9460;BME280;4768;42.664;23.240;2022-07-29T05:19:46;172350.09;;;20.22;100.00
9460;BME280;4768;42.664;23.240;2022-07-29T05:22:14;172508.38;;;20.81;100.00
9460;BME280;4768;42.664;23.240;2022-07-29T05:24:41;172250.81;;;19.86;100.00
9460;BME280;4768;42.664;23.240;2022-07-29T05:27:08;172528.50;;;20.88;100.00
9460;BME280;4768;42.664;23.240;2022-07-29T05:29:34;172611.66;;;21.19;100.00
9460;BME280;4768;42.664;23.240;2022-07-29T05:32:02;172596.91;;;21.13;100.00
9460;BME280;4768;42.664;23.240;2022-07-29T05:34:29;172637.13;;;21.28;100.00
9460;BME280;4768;42.664;23.240;2022-07-29T05:36:56;172313.91;;;20.09;100.00
9460;BME280;4768;42.664;23.240;2022-07-29T05:39:24;172296.47;;;20.02;100.00
9460;BME280;4768;42.664;23.240;2022-07-29T05:41:51;172260.31;;;19.89;100.00
9460;BME280;4768;42.664;23.240;2022-07-29T05:44:18;172340.72;;;20.19;100.00
9460;BME280;4768;42.664;23.240;2022-07-29T05:46:44;172406.41;;;20.43;100.00
9460;BME280;4768;42.664;23.240;2022-07-29T05:49:11;172450.63;;;20.59;100.00
9460;BME280;4768;42.664;23.240;2022-07-29T05:51:38;172540.56;;;20.92;100.00
9460;BME280;4768;42.664;23.240;2022-07-29T05:54:05;172498.97;;;20.77;100.00
9460;BME280;4768;42.664;23.240;2022-07-29T05:56:35;172700.25;;;21.51;100.00
9460;BME280;4768;42.664;23.240;2022-07-29T05:59:02;172810.25;;;21.92;100.00
9460;BME280;4768;42.664;23.240;2022-07-29T06:01:29;172796.84;;;21.87;100.00
9460;BME280;4768;42.664;23.240;2022-07-29T06:03:56;172780.75;;;21.81;100.00
9460;BME280;4768;42.664;23.240;2022-07-29T06:06:23;172808.94;;;21.91;100.00
9460;BME280;4768;42.664;23.240;2022-07-29T06:08:50;172850.50;;;22.07;100.00
9460;BME280;4768;42.664;23.240;2022-07-29T06:11:17;172901.56;;;22.26;100.00
9460;BME280;4768;42.664;23.240;2022-07-29T06:13:45;172994.19;;;22.60;100.00
9460;BME280;4768;42.664;23.240;2022-07-29T06:16:11;173108.38;;;23.02;100.00
9460;BME280;4768;42.664;23.240;2022-07-29T06:18:38;173139.28;;;23.13;100.00
9460;BME280;4768;42.664;23.240;2022-07-29T06:21:07;173164.78;;;23.23;100.00
9460;BME280;4768;42.664;23.240;2022-07-29T06:23:35;173019.72;;;22.69;100.00
9460;BME280;4768;42.664;23.240;2022-07-29T06:26:02;173043.88;;;22.78;100.00
9460;BME280;4768;42.664;23.240;2022-07-29T06:28:28;173085.50;;;22.93;100.00
9460;BME280;4768;42.664;23.240;2022-07-29T06:30:56;173047.91;;;22.80;100.00
9460;BME280;4768;42.664;23.240;2022-07-29T06:33:23;173006.28;;;22.64;100.00
9460;BME280;4768;42.664;23.240;2022-07-29T06:35:50;173053.28;;;22.82;100.00
9460;BME280;4768;42.664;23.240;2022-07-29T06:38:17;173060.00;;;22.84;100.00
9460;BME280;4768;42.664;23.240;2022-07-29T06:40:44;173112.41;;;23.03;100.00
9460;BME280;4768;42.664;23.240;2022-07-29T06:43:28;173037.16;;;22.76;100.00
9460;BME280;4768;42.664;23.240;2022-07-29T06:45:59;173097.63;;;22.98;100.00
9460;BME280;4768;42.664;23.240;2022-07-29T06:48:27;173061.31;;;22.84;100.00
9460;BME280;4768;42.664;23.240;2022-07-29T06:50:54;173074.78;;;22.89;100.00
9460;BME280;4768;42.664;23.240;2022-07-29T06:53:21;173202.38;;;23.36;100.00
9460;BME280;4768;42.664;23.240;2022-07-29T06:55:48;173150.00;;;23.17;100.00
9460;BME280;4768;42.664;23.240;2022-07-29T06:58:15;173281.66;;;23.66;100.00
9460;BME280;4768;42.664;23.240;2022-07-29T07:00:44;173324.66;;;23.82;100.00
9460;BME280;4768;42.664;23.240;2022-07-29T07:03:13;173328.69;;;23.83;100.00
9460;BME280;4768;42.664;23.240;2022-07-29T07:05:39;173336.75;;;23.86;100.00
9460;BME280;4768;42.664;23.240;2022-07-29T07:08:06;173281.66;;;23.66;100.00
9460;BME280;4768;42.664;23.240;2022-07-29T07:10:34;173266.88;;;23.60;100.00
9460;BME280;4768;42.664;23.240;2022-07-29T07:13:00;173299.16;;;23.72;100.00
9460;BME280;4768;42.664;23.240;2022-07-29T07:15:28;173367.66;;;23.97;100.00
9460;BME280;4768;42.664;23.240;2022-07-29T07:17:54;173374.34;;;24.00;100.00
9460;BME280;4768;42.664;23.240;2022-07-29T07:20:24;173445.56;;;24.26;100.00
9460;BME280;4768;42.664;23.240;2022-07-29T07:22:50;173499.41;;;24.46;100.00
9460;BME280;4768;42.664;23.240;2022-07-29T07:25:17;173403.94;;;24.11;100.00
9460;BME280;4768;42.664;23.240;2022-07-29T07:27:44;173292.44;;;23.70;100.00
9460;BME280;4768;42.664;23.240;2022-07-29T07:30:11;173317.94;;;23.79;100.00
9460;BME280;4768;42.664;23.240;2022-07-29T07:32:38;173281.66;;;23.66;100.00
9460;BME280;4768;42.664;23.240;2022-07-29T07:35:07;173274.94;;;23.63;100.00
9460;BME280;4768;42.664;23.240;2022-07-29T07:37:36;173393.19;;;24.07;100.00
9460;BME280;4768;42.664;23.240;2022-07-29T07:40:04;173518.19;;;24.53;100.00
9460;BME280;4768;42.664;23.240;2022-07-29T07:42:30;173551.81;;;24.65;100.00
9460;BME280;4768;42.664;23.240;2022-07-29T07:44:57;173519.56;;;24.53;100.00
9460;BME280;4768;42.664;23.240;2022-07-29T07:47:24;173507.47;;;24.49;100.00
9460;BME280;4768;42.664;23.240;2022-07-29T07:49:51;173391.84;;;24.06;100.00
9460;BME280;4768;42.664;23.240;2022-07-29T07:52:19;173495.38;;;24.44;100.00
9460;BME280;4768;42.664;23.240;2022-07-29T07:54:48;173609.59;;;24.86;100.00
9460;BME280;4768;42.664;23.240;2022-07-29T07:57:15;173688.94;;;25.16;100.00
9460;BME280;4768;42.664;23.240;2022-07-29T07:59:42;173736.00;;;25.33;100.00
9460;BME280;4768;42.664;23.240;2022-07-29T08:02:09;173705.09;;;25.22;100.00
9460;BME280;4768;42.664;23.240;2022-07-29T08:04:36;173590.81;;;24.80;100.00
9460;BME280;4768;42.664;23.240;2022-07-29T08:07:05;173609.59;;;24.86;100.00
9460;BME280;4768;42.664;23.240;2022-07-29T08:09:33;173692.97;;;25.17;100.00
9460;BME280;4768;42.664;23.240;2022-07-29T08:12:01;173674.16;;;25.10;100.00
9460;BME280;4768;42.664;23.240;2022-07-29T08:14:29;173736.00;;;25.33;100.00
9460;BME280;4768;42.664;23.240;2022-07-29T08:16:56;173893.38;;;25.91;100.00
9460;BME280;4768;42.664;23.240;2022-07-29T08:19:22;173991.56;;;26.27;100.00
9460;BME280;4768;42.664;23.240;2022-07-29T08:21:49;173839.59;;;25.71;100.00
9460;BME280;4768;42.664;23.240;2022-07-29T08:24:17;173959.31;;;26.15;100.00
9460;BME280;4768;42.664;23.240;2022-07-29T08:27:03;173925.66;;;26.03;100.00
9460;BME280;4768;42.664;23.240;2022-07-29T08:29:30;173740.03;;;25.34;100.00
9460;BME280;4768;42.664;23.240;2022-07-29T08:31:56;173809.94;;;25.60;100.00
9460;BME280;4768;42.664;23.240;2022-07-29T08:34:23;173843.63;;;25.73;100.00
9460;BME280;4768;42.664;23.240;2022-07-29T08:36:50;173918.97;;;26.00;100.00
9460;BME280;4768;42.664;23.240;2022-07-29T08:39:17;173881.28;;;25.86;100.00
9460;BME280;4768;42.664;23.240;2022-07-29T08:41:44;173857.06;;;25.78;100.00
9460;BME280;4768;42.664;23.240;2022-07-29T08:44:12;173982.13;;;26.24;100.00
9460;BME280;4768;42.664;23.240;2022-07-29T08:46:39;174069.63;;;26.56;100.00
9460;BME280;4768;42.664;23.240;2022-07-29T08:49:06;174081.72;;;26.60;100.00
9460;BME280;4768;42.664;23.240;2022-07-29T08:51:33;174081.72;;;26.60;100.00
9460;BME280;4768;42.664;23.240;2022-07-29T08:54:02;174019.88;;;26.37;100.00
9460;BME280;4768;42.664;23.240;2022-07-29T08:56:29;173992.91;;;26.27;100.00
9460;BME280;4768;42.664;23.240;2022-07-29T08:58:57;174069.63;;;26.56;100.00
9460;BME280;4768;42.664;23.240;2022-07-29T09:01:27;174131.53;;;26.78;100.00
9460;BME280;4768;42.664;23.240;2022-07-29T09:03:56;174188.09;;;26.99;100.00
9460;BME280;4768;42.664;23.240;2022-07-29T09:06:29;174108.66;;;26.70;100.00
9460;BME280;4768;42.664;23.240;2022-07-29T09:08:59;173994.28;;;26.28;100.00
9460;BME280;4768;42.664;23.240;2022-07-29T09:11:26;174158.41;;;26.88;100.00
9460;BME280;4768;42.664;23.240;2022-07-29T09:13:53;174157.09;;;26.88;100.00
9460;BME280;4768;42.664;23.240;2022-07-29T09:16:20;174198.81;;;27.03;100.00
9460;BME280;4768;42.664;23.240;2022-07-29T09:18:48;174289.00;;;27.36;100.00
9460;BME280;4768;42.664;23.240;2022-07-29T09:21:16;174412.91;;;27.82;100.00
9460;BME280;4768;42.664;23.240;2022-07-29T09:24:03;174307.88;;;27.43;100.00
9460;BME280;4768;42.664;23.240;2022-07-29T09:26:32;174392.72;;;27.75;100.00
9460;BME280;4768;42.664;23.240;2022-07-29T09:28:59;174340.22;;;27.55;100.00
9460;BME280;4768;42.664;23.240;2022-07-29T09:31:35;174270.16;;;27.29;100.00
9460;BME280;4768;42.664;23.240;2022-07-29T09:34:03;174249.97;;;27.22;100.00
9460;BME280;4768;42.664;23.240;2022-07-29T09:36:30;174295.75;;;27.39;100.00
9460;BME280;4768;42.664;23.240;2022-07-29T09:38:58;174280.94;;;27.33;100.00
9460;BME280;4768;42.664;23.240;2022-07-29T09:41:25;174333.47;;;27.53;100.00
9460;BME280;4768;42.664;23.240;2022-07-29T09:43:56;174352.31;;;27.60;100.00
9460;BME280;4768;42.664;23.240;2022-07-29T09:46:26;174371.13;;;27.67;100.00
9460;BME280;4768;42.664;23.240;2022-07-29T09:49:07;174395.38;;;27.76;100.00
9460;BME280;4768;42.664;23.240;2022-07-29T09:51:34;174294.38;;;27.38;100.00
9460;BME280;4768;42.664;23.240;2022-07-29T09:54:01;174249.97;;;27.22;100.00
9460;BME280;4768;42.664;23.240;2022-07-29T09:56:39;174376.56;;;27.69;100.00
9460;BME280;4768;42.664;23.240;2022-07-29T09:59:07;174303.84;;;27.42;100.00
9460;BME280;4768;42.664;23.240;2022-07-29T10:01:34;174336.19;;;27.54;100.00
9460;BME280;4768;42.664;23.240;2022-07-29T10:04:02;174404.81;;;27.79;100.00
9460;BME280;4768;42.664;23.240;2022-07-29T10:06:30;174497.75;;;28.13;100.00
9460;BME280;4768;42.664;23.240;2022-07-29T10:09:07;174496.41;;;28.13;100.00
9460;BME280;4768;42.664;23.240;2022-07-29T10:11:34;174546.22;;;28.31;100.00
9460;BME280;4768;42.664;23.240;2022-07-29T10:14:02;174530.06;;;28.25;100.00
9460;BME280;4768;42.664;23.240;2022-07-29T10:16:30;174406.16;;;27.79;100.00
9460;BME280;4768;42.664;23.240;2022-07-29T10:18:59;174430.38;;;27.88;100.00
9460;BME280;4768;42.664;23.240;2022-07-29T10:21:26;174433.09;;;27.89;100.00
9460;BME280;4768;42.664;23.240;2022-07-29T10:23:54;174426.34;;;27.87;100.00
9460;BME280;4768;42.664;23.240;2022-07-29T10:26:23;174446.53;;;27.94;100.00
9460;BME280;4768;42.664;23.240;2022-07-29T10:28:50;174410.19;;;27.81;100.00
9460;BME280;4768;42.664;23.240;2022-07-29T10:31:22;174520.66;;;28.22;100.00
9460;BME280;4768;42.664;23.240;2022-07-29T10:34:00;174488.34;;;28.10;100.00
9460;BME280;4768;42.664;23.240;2022-07-29T10:36:41;174667.44;;;28.76;100.00
9460;BME280;4768;42.664;23.240;2022-07-29T10:39:20;174511.19;;;28.18;100.00
9460;BME280;4768;42.664;23.240;2022-07-29T10:42:02;174337.50;;;27.54;100.00
9460;BME280;4768;42.664;23.240;2022-07-29T10:44:33;174566.41;;;28.38;100.00
9460;BME280;4768;42.664;23.240;2022-07-29T10:47:00;174664.78;;;28.75;100.00
9460;BME280;4768;42.664;23.240;2022-07-29T10:49:27;174687.66;;;28.83;100.00
9460;BME280;4768;42.664;23.240;2022-07-29T10:52:04;174718.63;;;28.94;100.00
9460;BME280;4768;42.664;23.240;2022-07-29T10:54:46;174772.53;;;29.14;100.00
9460;BME280;4768;42.664;23.240;2022-07-29T10:57:17;174807.59;;;29.27;100.00
9460;BME280;4768;42.664;23.240;2022-07-29T10:59:47;174706.53;;;28.90;100.00
9460;BME280;4768;42.664;23.240;2022-07-29T11:02:43;174542.19;;;28.29;100.00
9460;BME280;4768;42.664;23.240;2022-07-29T11:05:11;174505.81;;;28.16;100.00
9460;BME280;4768;42.664;23.240;2022-07-29T11:07:40;174667.44;;;28.76;100.00
9460;BME280;4768;42.664;23.240;2022-07-29T11:10:28;174685.00;;;28.82;100.00
9460;BME280;4768;42.664;23.240;2022-07-29T11:12:54;174791.34;;;29.21;100.00
9460;BME280;4768;42.664;23.240;2022-07-29T11:15:22;174752.28;;;29.07;100.00
9460;BME280;4768;42.664;23.240;2022-07-29T11:18:05;174740.16;;;29.02;100.00
9460;BME280;4768;42.664;23.240;2022-07-29T11:20:34;174740.16;;;29.02;100.00
9460;BME280;4768;42.664;23.240;2022-07-29T11:23:02;174786.00;;;29.19;100.00
9460;BME280;4768;42.664;23.240;2022-07-29T11:25:45;174745.59;;;29.04;100.00
9460;BME280;4768;42.664;23.240;2022-07-29T11:28:16;174813.00;;;29.29;100.00
9460;BME280;4768;42.664;23.240;2022-07-29T11:30:49;174769.84;;;29.13;100.00
9460;BME280;4768;42.664;23.240;2022-07-29T11:33:37;174891.09;;;29.58;100.00
9460;BME280;4768;42.664;23.240;2022-07-29T11:36:09;174796.78;;;29.23;100.00
9460;BME280;4768;42.664;23.240;2022-07-29T11:38:37;174768.44;;;29.13;100.00
9460;BME280;4768;42.664;23.240;2022-07-29T11:41:24;174745.59;;;29.04;100.00
9460;BME280;4768;42.664;23.240;2022-07-29T11:43:52;174876.28;;;29.52;100.00
9460;BME280;4768;42.664;23.240;2022-07-29T11:46:46;174868.19;;;29.49;100.00
9460;BME280;4768;42.664;23.240;2022-07-29T11:49:19;174834.53;;;29.37;100.00
9460;BME280;4768;42.664;23.240;2022-07-29T11:51:50;174854.75;;;29.44;100.00
9460;BME280;4768;42.664;23.240;2022-07-29T11:54:24;174916.69;;;29.67;100.00
9460;BME280;4768;42.664;23.240;2022-07-29T11:56:53;174930.19;;;29.72;100.00
9460;BME280;4768;42.664;23.240;2022-07-29T11:59:20;174901.91;;;29.62;100.00
9460;BME280;4768;42.664;23.240;2022-07-29T12:01:54;174788.72;;;29.20;100.00
9460;BME280;4768;42.664;23.240;2022-07-29T12:04:21;174764.41;;;29.11;100.00
9460;BME280;4768;42.664;23.240;2022-07-29T12:06:49;174842.63;;;29.40;100.00
9460;BME280;4768;42.664;23.240;2022-07-29T12:09:16;174973.38;;;29.88;100.00
9460;BME280;4768;42.664;23.240;2022-07-29T12:11:46;174870.91;;;29.50;100.00
9460;BME280;4768;42.664;23.240;2022-07-29T12:14:28;174907.28;;;29.64;100.00
9460;BME280;4768;42.664;23.240;2022-07-29T12:16:55;175015.13;;;30.03;100.00
9460;BME280;4768;42.664;23.240;2022-07-29T12:19:22;174966.63;;;29.85;100.00
9460;BME280;4768;42.664;23.240;2022-07-29T12:21:50;174996.25;;;29.96;100.00
9460;BME280;4768;42.664;23.240;2022-07-29T12:24:18;174962.56;;;29.84;100.00
9460;BME280;4768;42.664;23.240;2022-07-29T12:26:52;175082.53;;;30.28;100.00
9460;BME280;4768;42.664;23.240;2022-07-29T12:29:19;175046.13;;;30.15;100.00
9460;BME280;4768;42.664;23.240;2022-07-29T12:31:51;174986.84;;;29.93;100.00
9460;BME280;4768;42.664;23.240;2022-07-29T12:34:20;175035.34;;;30.11;100.00
9460;BME280;4768;42.664;23.240;2022-07-29T12:36:49;175098.69;;;30.34;100.00
9460;BME280;4768;42.664;23.240;2022-07-29T12:39:16;175059.59;;;30.20;100.00
9460;BME280;4768;42.664;23.240;2022-07-29T12:41:43;175036.66;;;30.11;100.00
9460;BME280;4768;42.664;23.240;2022-07-29T12:44:11;175044.75;;;30.14;100.00
9460;BME280;4768;42.664;23.240;2022-07-29T12:46:38;175025.91;;;30.07;100.00
9460;BME280;4768;42.664;23.240;2022-07-29T12:49:06;174808.97;;;29.27;100.00
9460;BME280;4768;42.664;23.240;2022-07-29T12:51:34;174972.00;;;29.87;100.00
9460;BME280;4768;42.664;23.240;2022-07-29T12:54:04;175000.28;;;29.98;100.00
9460;BME280;4768;42.664;23.240;2022-07-29T12:56:31;174972.00;;;29.87;100.00
9460;BME280;4768;42.664;23.240;2022-07-29T12:58:58;174972.00;;;29.87;100.00
9460;BME280;4768;42.664;23.240;2022-07-29T13:01:25;174976.03;;;29.89;100.00